Time;durP1;ratioP1;P1;durP2;ratioP2;P2;SDS_P1;SDS_P2;PMS_P1;PMS_P2;Temp;Humidity;BMP_temperature;BMP_pressure;BME280_temperature;BME280_humidity;BME280_pressure;Samples;Min_cycle;Max_cycle;Signal;HPM_P1;HPM_P2
2023/11/27 00:02:23;;;;;;;9.97;8.60;;;;;;;-5.31;100.00;100717.53;5113821;28;20067;-66
2023/11/27 00:04:50;;;;;;;10.93;8.83;;;;;;;-5.13;100.00;100735.88;5114155;28;20043;-66
2023/11/27 00:07:16;;;;;;;11.20;8.40;;;;;;;-5.06;100.00;100740.75;5114080;28;20035;-64
2023/11/27 00:09:41;;;;;;;14.93;9.27;;;;;;;-5.14;100.00;100736.78;5114205;28;20066;-65
2023/11/27 00:12:08;;;;;;;13.23;8.57;;;;;;;-5.36;100.00;100714.28;5113914;28;20062;-66
2023/11/27 00:14:34;;;;;;;19.00;9.90;;;;;;;-5.31;100.00;100721.88;5114031;28;20034;-66
2023/11/27 00:17:00;;;;;;;13.90;8.83;;;;;;;-5.12;100.00;100745.34;5113372;28;20032;-67
2023/11/27 00:19:25;;;;;;;16.57;9.53;;;;;;;-5.24;100.00;100728.50;5113367;27;20119;-66
2023/11/27 00:21:52;;;;;;;15.63;8.53;;;;;;;-6.17;100.00;100581.03;5113815;28;20088;-64
2023/11/27 00:24:18;;;;;;;15.00;8.88;;;;;;;-5.30;100.00;100729.63;5113400;28;20042;-65
2023/11/27 00:26:43;;;;;;;16.47;9.43;;;;;;;-5.43;100.00;100705.09;5113627;28;20044;-66
2023/11/27 00:29:09;;;;;;;11.97;9.00;;;;;;;-5.34;100.00;100722.88;5113767;28;20471;-66
2023/11/27 00:31:35;;;;;;;14.17;10.00;;;;;;;-5.15;100.00;100756.72;5113483;28;20070;-66
2023/11/27 00:34:01;;;;;;;11.05;8.05;;;;;;;-5.06;100.00;100761.50;5113742;28;20127;-66
2023/11/27 00:36:26;;;;;;;13.40;8.93;;;;;;;-5.16;100.00;100760.22;5113733;28;20474;-65
2023/11/27 00:38:52;;;;;;;15.87;9.03;;;;;;;-5.14;100.00;100758.41;5113153;28;20047;-66
2023/11/27 00:41:18;;;;;;;14.80;10.10;;;;;;;-5.14;100.00;100735.03;5114028;28;20070;-64
2023/11/27 00:43:45;;;;;;;14.43;8.35;;;;;;;-4.97;100.00;100742.09;5113481;28;20043;-65
2023/11/27 00:46:12;;;;;;;11.38;8.95;;;;;;;-4.78;100.00;100768.16;5113706;28;20371;-66
2023/11/27 00:48:37;;;;;;;13.05;8.90;;;;;;;-4.93;100.00;100742.81;5113133;28;20050;-64
2023/11/27 00:51:06;;;;;;;14.90;10.17;;;;;;;-4.80;100.00;100773.41;5113056;28;20035;-65
2023/11/27 00:53:32;;;;;;;12.98;8.63;;;;;;;-4.99;100.00;100759.50;5113181;28;20140;-66
2023/11/27 00:55:57;;;;;;;16.07;9.97;;;;;;;-5.01;100.00;100774.31;5113038;28;20118;-65
2023/11/27 00:58:23;;;;;;;12.83;9.00;;;;;;;-5.01;100.00;100743.97;5112739;28;20061;-65
2023/11/27 01:00:48;;;;;;;13.77;9.67;;;;;;;-4.81;100.00;100768.28;5113162;28;20043;-64
2023/11/27 01:03:15;;;;;;;12.23;9.00;;;;;;;-4.92;100.00;100747.09;5112636;28;20571;-65
2023/11/27 01:05:41;;;;;;;13.38;8.82;;;;;;;-4.91;100.00;100749.66;5109301;28;20042;-65
2023/11/27 01:08:06;;;;;;;13.15;9.10;;;;;;;-5.42;100.00;100670.44;5112854;28;20043;-66
2023/11/27 01:10:32;;;;;;;15.87;9.70;;;;;;;-4.84;100.00;100773.63;5112925;28;20027;-66
2023/11/27 01:12:58;;;;;;;13.67;10.27;;;;;;;-4.85;100.00;100764.97;5112115;28;20580;-65
2023/11/27 01:15:24;;;;;;;14.70;9.20;;;;;;;-4.76;100.00;100771.53;5112651;28;20031;-66
2023/11/27 01:17:49;;;;;;;13.03;9.13;;;;;;;-4.85;100.00;100753.75;5111909;28;20034;-64
2023/11/27 01:20:15;;;;;;;14.63;9.80;;;;;;;-4.83;100.00;100751.91;5120041;28;20161;-65
2023/11/27 01:22:41;;;;;;;15.90;11.48;;;;;;;-4.70;100.00;100750.47;5116028;28;20126;-66
2023/11/27 01:25:07;;;;;;;13.70;10.07;;;;;;;-4.71;100.00;100747.03;5127583;28;20015;-64
2023/11/27 01:27:34;;;;;;;16.43;11.40;;;;;;;-4.90;100.00;100729.72;5135939;28;20285;-66
2023/11/27 01:30:01;;;;;;;15.48;9.93;;;;;;;-4.77;100.00;100747.28;5136399;28;20052;-65
2023/11/27 01:32:27;;;;;;;15.05;10.02;;;;;;;-4.86;100.00;100759.84;5135842;28;20055;-65
2023/11/27 01:34:53;;;;;;;17.07;10.50;;;;;;;-4.82;100.00;100764.00;5123504;28;20050;-65
2023/11/27 01:37:19;;;;;;;12.70;8.37;;;;;;;-4.94;100.00;100723.78;5112920;28;20402;-63
2023/11/27 01:39:44;;;;;;;13.52;9.55;;;;;;;-4.64;100.00;100742.41;5113167;28;20031;-65
2023/11/27 01:42:10;;;;;;;14.00;9.70;;;;;;;-4.64;100.00;100725.97;5113617;28;20380;-64
2023/11/27 01:44:37;;;;;;;14.23;8.93;;;;;;;-4.51;100.00;100748.78;5113803;28;20043;-64
2023/11/27 01:47:03;;;;;;;12.48;8.65;;;;;;;-4.58;100.00;100747.34;5113347;28;20115;-66
2023/11/27 01:49:29;;;;;;;13.63;10.37;;;;;;;-4.54;100.00;100753.25;5112711;28;20542;-66
2023/11/27 01:51:55;;;;;;;13.30;9.38;;;;;;;-4.65;100.00;100729.47;5112497;28;20122;-64
2023/11/27 01:54:22;;;;;;;16.08;11.02;;;;;;;-4.56;100.00;100740.34;5112134;28;20547;-67
2023/11/27 01:56:49;;;;;;;12.80;8.68;;;;;;;-4.64;100.00;100720.78;5112036;28;20077;-65
2023/11/27 01:59:16;;;;;;;14.27;8.60;;;;;;;-4.46;100.00;100730.38;5111841;28;20449;-65
2023/11/27 02:01:42;;;;;;;12.57;8.75;;;;;;;-4.44;100.00;100723.34;5111851;28;20543;-65
2023/11/27 02:04:09;;;;;;;13.00;8.60;;;;;;;-4.41;100.00;100718.00;5112583;28;20056;-65
2023/11/27 02:06:35;;;;;;;11.20;8.20;;;;;;;-4.33;100.00;100726.31;5110841;28;20134;-66
2023/11/27 02:09:02;;;;;;;11.40;8.60;;;;;;;-4.52;100.00;100695.09;5112280;28;20114;-66
2023/11/27 02:11:29;;;;;;;14.32;9.73;;;;;;;-4.55;100.00;100710.84;5110598;28;20123;-65
2023/11/27 02:13:55;;;;;;;11.43;8.80;;;;;;;-4.54;100.00;100716.88;5111648;28;20043;-65
2023/11/27 02:16:22;;;;;;;16.07;11.43;;;;;;;-4.93;100.00;100663.13;5111886;28;20039;-65
2023/11/27 02:18:48;;;;;;;13.02;9.30;;;;;;;-4.71;100.00;100702.00;5112032;28;20035;-67
2023/11/27 02:21:16;;;;;;;14.60;10.13;;;;;;;-4.62;100.00;100730.22;5111782;28;20092;-65
2023/11/27 02:23:42;;;;;;;9.38;7.25;;;;;;;-4.61;100.00;100731.06;5111676;28;20039;-65
2023/11/27 02:26:08;;;;;;;13.57;9.47;;;;;;;-4.59;100.00;100737.03;5115528;28;20042;-64
2023/11/27 02:28:33;;;;;;;13.15;9.93;;;;;;;-4.70;100.00;100717.53;5115718;27;20410;-66
2023/11/27 02:30:59;;;;;;;16.57;10.10;;;;;;;-4.87;100.00;100698.41;5116222;28;20096;-64
2023/11/27 02:33:25;;;;;;;15.18;9.85;;;;;;;-4.67;100.00;100732.97;5116271;28;20042;-65
2023/11/27 02:35:52;;;;;;;13.57;9.40;;;;;;;-4.67;100.00;100729.53;5115613;28;20031;-67
2023/11/27 02:38:18;;;;;;;13.27;9.13;;;;;;;-4.87;100.00;100690.63;5115414;28;20040;-65
2023/11/27 02:40:43;;;;;;;16.60;9.77;;;;;;;-4.51;100.00;100737.53;5115579;28;20032;-64
2023/11/27 02:43:09;;;;;;;16.67;10.10;;;;;;;-4.38;100.00;100759.47;5115779;28;20084;-65
2023/11/27 02:45:35;;;;;;;14.63;10.60;;;;;;;-4.41;100.00;100746.59;5114265;28;20069;-66
2023/11/27 02:48:01;;;;;;;14.70;10.20;;;;;;;-4.31;100.00;100754.84;5115771;28;20031;-65
2023/11/27 02:50:27;;;;;;;15.40;10.00;;;;;;;-4.35;100.00;100735.91;5115496;28;20047;-64
2023/11/27 02:52:53;;;;;;;13.50;9.70;;;;;;;-4.28;100.00;100747.75;5115775;28;20030;-67
2023/11/27 02:55:19;;;;;;;15.93;10.93;;;;;;;-4.28;100.00;100744.31;5115528;28;20024;-64
2023/11/27 02:57:46;;;;;;;13.43;9.43;;;;;;;-4.24;100.00;100723.28;5115008;28;20031;-66
2023/11/27 03:00:12;;;;;;;15.90;11.20;;;;;;;-4.60;100.00;100659.97;5115628;28;20045;-65
2023/11/27 03:02:39;;;;;;;17.65;9.57;;;;;;;-4.61;100.00;100666.09;5113736;28;20051;-66
2023/11/27 03:05:08;;;;;;;16.58;9.93;;;;;;;-4.23;100.00;100737.97;5115079;28;20471;-62
2023/11/27 03:07:37;;;;;;;28.63;11.48;;;;;;;-4.47;100.00;100697.50;5115338;28;20047;-65
2023/11/27 03:10:03;;;;;;;13.87;9.47;;;;;;;-4.27;100.00;100730.41;5115019;28;20129;-66
2023/11/27 03:12:30;;;;;;;15.50;8.95;;;;;;;-4.67;100.00;100677.56;5115130;27;20364;-64
2023/11/27 03:14:56;;;;;;;15.33;9.03;;;;;;;-4.42;100.00;100716.31;5115298;28;20127;-65
2023/11/27 03:17:23;;;;;;;13.13;10.07;;;;;;;-4.70;100.00;100662.97;5115300;28;20039;-67
2023/11/27 03:19:48;;;;;;;13.05;9.30;;;;;;;-4.27;100.00;100731.25;5115113;28;20040;-64
2023/11/27 03:22:14;;;;;;;12.70;9.07;;;;;;;-4.40;100.00;100714.50;5114717;28;20036;-66
2023/11/27 03:24:40;;;;;;;16.03;9.53;;;;;;;-4.25;100.00;100737.22;5114591;28;20032;-63
2023/11/27 03:27:05;;;;;;;18.67;10.37;;;;;;;-4.56;100.00;100684.91;5113530;28;20122;-66
2023/11/27 03:29:31;;;;;;;21.83;12.10;;;;;;;-4.29;100.00;100725.25;5114976;27;20383;-64
2023/11/27 03:31:57;;;;;;;16.33;11.32;;;;;;;-4.36;100.00;100706.47;5114532;28;20104;-66
2023/11/27 03:34:23;;;;;;;17.37;10.87;;;;;;;-5.21;100.00;100558.78;5114807;28;20044;-65
2023/11/27 03:36:49;;;;;;;15.48;10.48;;;;;;;-4.39;100.00;100685.81;5114099;28;20036;-65
2023/11/27 03:39:15;;;;;;;14.37;9.83;;;;;;;-4.24;100.00;100715.50;5114397;28;20444;-65
2023/11/27 03:41:40;;;;;;;12.57;8.20;;;;;;;-4.44;100.00;100673.94;5114923;28;20408;-64
2023/11/27 03:44:08;;;;;;;17.10;10.53;;;;;;;-4.31;100.00;100703.69;5114441;28;20051;-66
2023/11/27 03:46:34;;;;;;;13.48;9.27;;;;;;;-4.17;100.00;100727.28;5112931;28;20027;-65
2023/11/27 03:49:00;;;;;;;15.95;11.50;;;;;;;-4.28;100.00;100706.16;5114315;28;20039;-64
2023/11/27 03:51:26;;;;;;;14.85;9.93;;;;;;;-4.33;100.00;100695.13;5114253;28;20035;-66
2023/11/27 03:53:52;;;;;;;13.90;9.70;;;;;;;-4.18;100.00;100717.81;5112912;28;20376;-65
2023/11/27 03:56:18;;;;;;;14.03;8.33;;;;;;;-4.21;100.00;100704.09;5114103;28;20120;-66
2023/11/27 03:58:44;;;;;;;17.30;10.63;;;;;;;-4.20;100.00;100701.44;5113638;28;20513;-67
2023/11/27 04:01:13;;;;;;;15.20;9.77;;;;;;;-4.24;100.00;100697.28;5114353;28;20039;-66
2023/11/27 04:03:39;;;;;;;;;;;;;;;-4.10;100.00;100707.03;5113289;28;20052;-65
2023/11/27 04:06:07;;;;;;;12.73;8.93;;;;;;;-4.10;100.00;100709.66;5114301;28;19919;-66
2023/11/27 04:08:33;;;;;;;16.25;8.15;;;;;;;-4.16;100.00;100694.34;5113753;28;20051;-65
2023/11/27 04:10:59;;;;;;;13.63;8.93;;;;;;;-4.22;100.00;100681.63;5110659;27;20042;-64
2023/11/27 04:13:25;;;;;;;18.57;9.27;;;;;;;-4.24;100.00;100681.69;5113743;28;20402;-66
2023/11/27 04:15:50;;;;;;;12.37;8.27;;;;;;;-4.45;100.00;100639.31;5113787;28;20027;-66
2023/11/27 04:18:16;;;;;;;11.77;8.60;;;;;;;-4.10;100.00;100687.09;5113962;28;20031;-66
2023/11/27 04:20:42;;;;;;;13.73;9.07;;;;;;;-4.10;100.00;100684.47;5113617;28;20390;-67
2023/11/27 04:23:07;;;;;;;18.93;8.97;;;;;;;-3.96;100.00;100709.88;5113831;28;20032;-63
2023/11/27 04:25:33;;;;;;;15.87;8.13;;;;;;;-4.02;100.00;100689.34;5113749;28;20092;-65
2023/11/27 04:27:58;;;;;;;15.00;8.00;;;;;;;-4.01;100.00;100685.00;5113582;28;20069;-64
2023/11/27 04:30:24;;;;;;;14.60;8.73;;;;;;;-4.18;100.00;100660.59;5112758;28;20047;-65
2023/11/27 04:32:50;;;;;;;12.83;9.40;;;;;;;-3.95;100.00;100705.50;5114184;28;20489;-67
2023/11/27 04:35:15;;;;;;;13.10;8.20;;;;;;;-4.40;100.00;100626.09;5114253;28;20034;-69
2023/11/27 04:37:41;;;;;;;13.77;8.93;;;;;;;-4.08;100.00;100690.44;5115786;28;20061;-66
2023/11/27 04:40:10;;;;;;;14.93;9.50;;;;;;;-4.17;100.00;100672.69;5115423;28;20467;-70
2023/11/27 04:42:38;;;;;;;13.05;8.57;;;;;;;-4.00;100.00;100695.31;5113581;28;20031;-67
2023/11/27 04:45:06;;;;;;;14.38;10.07;;;;;;;-3.89;100.00;100706.06;5113329;28;20031;-73
2023/11/27 04:47:32;;;;;;;16.58;9.63;;;;;;;-3.92;100.00;100690.59;5112726;28;20410;-69
2023/11/27 04:49:58;;;;;;;13.93;9.40;;;;;;;-4.06;100.00;100682.56;5113409;28;20104;-68
2023/11/27 04:52:23;;;;;;;17.97;11.13;;;;;;;-3.97;100.00;100709.94;5113123;28;20039;-70
2023/11/27 04:54:49;;;;;;;23.03;11.60;;;;;;;-4.32;100.00;100650.00;5112968;28;20039;-67
2023/11/27 04:57:15;;;;;;;18.87;9.63;;;;;;;-4.23;100.00;100670.38;5113218;28;20035;-69
2023/11/27 04:59:40;;;;;;;17.00;10.60;;;;;;;-3.99;100.00;100719.56;5113164;28;20117;-67
2023/11/27 05:02:06;;;;;;;19.13;12.50;;;;;;;-3.98;100.00;100705.66;5113148;28;20032;-67
2023/11/27 05:04:33;;;;;;;15.97;10.13;;;;;;;-4.12;100.00;100682.88;5112650;28;20043;-66
2023/11/27 05:07:02;;;;;;;14.63;11.27;;;;;;;-4.16;100.00;100676.97;5104851;28;20498;-64
2023/11/27 05:09:28;;;;;;;14.38;9.93;;;;;;;-4.07;100.00;100693.91;5098301;28;20047;-65
2023/11/27 05:11:54;;;;;;;16.90;10.23;;;;;;;-4.13;100.00;100692.44;5111174;28;20036;-64
2023/11/27 05:14:19;;;;;;;17.33;10.13;;;;;;;-4.03;100.00;100718.03;5112169;28;20043;-65
2023/11/27 05:16:45;;;;;;;13.20;10.03;;;;;;;-4.09;100.00;100696.56;5111706;28;20489;-63
2023/11/27 05:19:11;;;;;;;13.23;9.40;;;;;;;-3.99;100.00;100717.81;5112536;28;20035;-65
2023/11/27 05:21:36;;;;;;;14.60;10.30;;;;;;;-4.19;100.00;100676.28;5112454;28;20047;-69
2023/11/27 05:24:02;;;;;;;18.73;11.20;;;;;;;-3.93;100.00;100714.06;5112601;28;20491;-70
2023/11/27 05:26:28;;;;;;;17.88;10.23;;;;;;;-4.03;100.00;100694.63;5112964;28;20379;-69
2023/11/27 05:28:54;;;;;;;14.70;9.90;;;;;;;-3.94;100.00;100707.19;5113199;28;20047;-71
2023/11/27 05:31:22;;;;;;;14.40;9.43;;;;;;;-3.94;100.00;100712.41;5112984;28;20032;-64
2023/11/27 05:33:48;;;;;;;11.27;8.30;;;;;;;-4.03;100.00;100692.03;5112462;28;20039;-65
2023/11/27 05:36:14;;;;;;;13.17;9.57;;;;;;;-4.14;100.00;100676.91;5112657;28;20035;-67
2023/11/27 05:38:39;;;;;;;13.03;9.27;;;;;;;-3.91;100.00;100714.84;5112695;28;20063;-63
2023/11/27 05:41:07;;;;;;;13.57;9.13;;;;;;;-3.98;100.00;100703.06;5112835;28;20487;-64
2023/11/27 05:43:33;;;;;;;12.00;9.20;;;;;;;-3.91;100.00;100712.25;5106429;28;20071;-65
2023/11/27 05:46:01;;;;;;;12.82;8.45;;;;;;;-4.39;100.00;100641.63;5107486;28;20514;-64
2023/11/27 05:48:27;;;;;;;13.25;9.02;;;;;;;-4.20;100.00;100675.44;5090466;28;20040;-63
2023/11/27 05:50:52;;;;;;;13.80;9.37;;;;;;;-4.17;100.00;100690.88;5091075;28;20595;-65
2023/11/27 05:53:18;;;;;;;16.87;9.77;;;;;;;-4.05;100.00;100705.06;5089970;28;20040;-65
2023/11/27 05:55:43;;;;;;;14.27;8.07;;;;;;;-4.23;100.00;100666.94;5091062;28;20395;-66
2023/11/27 05:58:09;;;;;;;14.83;9.87;;;;;;;-3.93;100.00;100711.47;5091211;28;20532;-67
2023/11/27 06:00:35;;;;;;;17.50;10.27;;;;;;;-4.18;100.00;100671.00;5091738;28;20058;-66
2023/11/27 06:03:01;;;;;;;16.27;10.37;;;;;;;-4.09;100.00;100693.13;5091003;28;20064;-67
2023/11/27 06:05:26;;;;;;;12.57;9.00;;;;;;;-4.02;100.00;100698.91;5091200;28;20047;-65
2023/11/27 06:07:52;;;;;;;13.97;8.90;;;;;;;-3.99;100.00;100703.97;5092126;28;20047;-67
2023/11/27 06:10:18;;;;;;;14.77;11.07;;;;;;;-4.03;100.00;100692.88;5092029;28;20096;-67
2023/11/27 06:12:44;;;;;;;16.88;10.50;;;;;;;-4.20;100.00;100679.78;5092250;28;20066;-67
2023/11/27 06:15:14;;;;;;;14.80;9.00;;;;;;;-4.19;100.00;100681.47;5092317;28;20466;-66
2023/11/27 06:17:44;;;;;;;18.08;12.52;;;;;;;-4.23;100.00;100685.97;5093059;28;20028;-67
2023/11/27 06:20:12;;;;;;;14.60;9.50;;;;;;;-4.12;100.00;100709.72;5092903;28;20040;-67
2023/11/27 06:22:41;;;;;;;13.68;10.13;;;;;;;-4.13;100.00;100710.63;5092970;28;20039;-66
2023/11/27 06:25:08;;;;;;;16.73;9.63;;;;;;;-4.17;100.00;100706.50;5092946;28;20048;-65
2023/11/27 06:27:34;;;;;;;17.00;10.48;;;;;;;-4.35;100.00;100689.13;5093026;28;20028;-65
2023/11/27 06:29:59;;;;;;;18.10;10.80;;;;;;;-4.27;100.00;100705.25;5092472;28;20050;-66
2023/11/27 06:32:25;;;;;;;14.97;9.90;;;;;;;-4.39;100.00;100685.81;5104522;28;20038;-65
2023/11/27 06:34:52;;;;;;;17.17;10.17;;;;;;;-4.40;100.00;100680.69;5112536;28;20063;-65
2023/11/27 06:37:18;;;;;;;13.63;10.00;;;;;;;-4.27;100.00;100689.63;5110636;28;20399;-68
2023/11/27 06:39:45;;;;;;;17.37;10.97;;;;;;;-4.29;100.00;100695.81;5111610;28;20043;-67
2023/11/27 06:42:12;;;;;;;18.10;10.48;;;;;;;-4.44;100.00;100663.56;5111965;28;20494;-64
2023/11/27 06:44:38;;;;;;;17.33;11.95;;;;;;;-4.90;100.00;100595.50;5111850;28;20097;-66
2023/11/27 06:47:04;;;;;;;15.18;10.27;;;;;;;-4.43;100.00;100673.03;5111716;28;20031;-65
2023/11/27 06:49:30;;;;;;;16.27;10.33;;;;;;;-4.36;100.00;100684.84;5111817;28;20031;-67
2023/11/27 06:51:56;;;;;;;20.70;11.37;;;;;;;-4.41;100.00;100697.19;5111666;28;20035;-66
2023/11/27 06:54:21;;;;;;;15.33;9.43;;;;;;;-4.94;100.00;100612.09;5111848;28;20123;-66
2023/11/27 06:56:47;;;;;;;16.63;10.97;;;;;;;-4.51;100.00;100690.75;5111693;28;20449;-67
2023/11/27 06:59:13;;;;;;;18.40;11.30;;;;;;;-4.49;100.00;100694.13;5111399;28;20076;-66
2023/11/27 07:01:41;;;;;;;17.53;13.40;;;;;;;-4.57;100.00;100709.22;5111609;28;20073;-65
2023/11/27 07:04:07;;;;;;;14.43;11.52;;;;;;;-4.72;100.00;100695.13;5111215;28;20065;-64
2023/11/27 07:06:35;;;;;;;15.38;11.38;;;;;;;-4.82;100.00;100681.72;5111557;28;20126;-66
2023/11/27 07:09:04;;;;;;;14.85;9.65;;;;;;;-5.19;100.00;100616.72;5110053;28;20085;-66
2023/11/27 07:11:34;;;;;;;13.63;9.20;;;;;;;-4.77;100.00;100686.69;5114204;28;20055;-66
2023/11/27 07:14:06;;;;;;;16.65;10.65;;;;;;;-4.72;100.00;100682.97;5115035;28;20031;-66
2023/11/27 07:16:31;;;;;;;16.95;10.15;;;;;;;-4.84;100.00;100654.13;5110652;28;20108;-64
2023/11/27 07:18:57;;;;;;;18.23;10.30;;;;;;;-5.00;100.00;100635.75;5115171;28;20467;-66
2023/11/27 07:21:25;;;;;;;17.30;10.50;;;;;;;-5.09;100.00;100620.56;5114057;28;20035;-68
2023/11/27 07:23:53;;;;;;;19.58;10.38;;;;;;;-4.77;100.00;100671.94;5116322;28;20075;-65
2023/11/27 07:26:20;;;;;;;19.45;12.07;;;;;;;-4.73;100.00;100670.91;5115388;28;20490;-67
2023/11/27 07:28:49;;;;;;;18.02;11.73;;;;;;;-4.65;100.00;100706.94;5114355;28;20041;-65
2023/11/27 07:31:16;;;;;;;16.65;10.68;;;;;;;-4.66;100.00;100681.84;5113609;28;20470;-67
2023/11/27 07:33:44;;;;;;;18.33;12.27;;;;;;;-4.63;100.00;100680.88;5115039;27;20039;-66
2023/11/27 07:36:10;;;;;;;16.58;9.02;;;;;;;-4.62;100.00;100667.84;5114932;28;20032;-66
2023/11/27 07:38:36;;;;;;;15.02;9.77;;;;;;;-4.46;100.00;100689.63;5114814;28;20038;-68
2023/11/27 07:41:05;;;;;;;14.73;10.07;;;;;;;-4.41;100.00;100684.22;5114594;28;20036;-68
2023/11/27 07:43:31;;;;;;;20.80;10.93;;;;;;;-4.46;100.00;100667.97;5114724;28;20039;-67
2023/11/27 07:45:57;;;;;;;14.40;9.52;;;;;;;-4.65;100.00;100656.72;5114695;28;20031;-67
2023/11/27 07:48:23;;;;;;;20.50;11.37;;;;;;;-4.65;100.00;100665.34;5114362;28;20502;-64
2023/11/27 07:50:50;;;;;;;10.53;8.13;;;;;;;-4.70;100.00;100660.38;5113431;28;20077;-68
2023/11/27 07:53:18;;;;;;;12.65;8.63;;;;;;;-4.80;100.00;100645.28;5114363;28;20039;-68
2023/11/27 07:55:44;;;;;;;18.63;9.75;;;;;;;-4.65;100.00;100661.91;5113179;28;20076;-65
2023/11/27 07:58:14;;;;;;;10.43;8.67;;;;;;;-4.71;100.00;100640.50;5114698;28;20032;-65
2023/11/27 08:00:40;;;;;;;11.77;8.93;;;;;;;-4.66;100.00;100648.06;5115268;27;20042;-66
2023/11/27 08:03:08;;;;;;;12.03;8.97;;;;;;;-4.52;100.00;100645.72;5114222;28;20063;-65
2023/11/27 08:05:35;;;;;;;11.02;8.25;;;;;;;-4.75;100.00;100599.97;5114055;28;20058;-71
2023/11/27 08:08:01;;;;;;;12.20;8.25;;;;;;;-4.40;100.00;100632.16;5113994;28;20046;-67
2023/11/27 08:10:28;;;;;;;14.50;9.90;;;;;;;-4.45;100.00;100605.53;5114239;27;20028;-70
2023/11/27 08:12:54;;;;;;;11.60;8.60;;;;;;;-4.38;100.00;100608.69;5095973;28;20043;-68
2023/11/27 08:15:20;;;;;;;13.37;7.73;;;;;;;-4.20;100.00;100622.56;5114685;28;20487;-68
2023/11/27 08:17:47;;;;;;;12.23;8.48;;;;;;;-4.35;100.00;100590.34;5112923;28;20398;-67
2023/11/27 08:20:15;;;;;;;11.52;8.65;;;;;;;-4.29;100.00;100597.03;5114360;28;20032;-65
2023/11/27 08:22:44;;;;;;;13.02;8.48;;;;;;;-4.21;100.00;100600.09;5112433;28;20511;-64
2023/11/27 08:25:10;;;;;;;;;;;;;;;-4.06;100.00;100617.56;5114054;28;20050;-65
2023/11/27 08:27:38;;;;;;;12.38;8.02;;;;;;;-4.20;100.00;100596.56;5115068;28;19939;-67
2023/11/27 08:30:09;;;;;;;11.82;9.02;;;;;;;-4.28;100.00;100576.16;5116271;28;20081;-66
2023/11/27 08:32:35;;;;;;;13.73;8.05;;;;;;;-4.11;100.00;100591.75;5127499;28;20027;-67
2023/11/27 08:35:01;;;;;;;10.57;8.43;;;;;;;-4.32;100.00;100546.00;5133937;28;20066;-66
2023/11/27 08:37:26;;;;;;;9.77;8.27;;;;;;;-4.16;100.00;100580.75;5133723;28;20119;-64
2023/11/27 08:39:52;;;;;;;11.30;8.17;;;;;;;-4.13;100.00;100578.00;5115070;28;20384;-68
2023/11/27 08:42:17;;;;;;;8.37;6.70;;;;;;;-4.15;100.00;100573.78;5113878;28;20039;-65
2023/11/27 08:44:43;;;;;;;10.07;7.47;;;;;;;-4.06;100.00;100587.19;5113791;28;20046;-67
2023/11/27 08:47:08;;;;;;;10.33;7.57;;;;;;;-4.17;100.00;100565.22;5113401;28;20035;-66
2023/11/27 08:49:34;;;;;;;8.47;6.90;;;;;;;-4.07;100.00;100590.69;5111909;28;20060;-65
2023/11/27 08:52:00;;;;;;;8.13;6.37;;;;;;;-4.04;100.00;100579.34;5113180;28;20043;-68
2023/11/27 08:54:32;;;;;;;7.30;6.55;;;;;;;-4.03;100.00;100580.19;5113139;28;20063;-66
2023/11/27 08:56:58;;;;;;;10.10;6.50;;;;;;;-3.99;100.00;100573.91;5113260;28;20039;-66
2023/11/27 08:59:25;;;;;;;9.05;6.65;;;;;;;-4.02;100.00;100569.69;5111768;28;20030;-64
2023/11/27 09:01:51;;;;;;;8.77;6.90;;;;;;;-3.95;100.00;100580.63;5112933;28;20173;-65
2023/11/27 09:04:19;;;;;;;7.15;6.13;;;;;;;-4.19;100.00;100518.50;5112468;28;20056;-65
2023/11/27 09:06:45;;;;;;;6.93;6.13;;;;;;;-3.94;100.00;100571.91;5112747;28;20509;-65
2023/11/27 09:09:11;;;;;;;6.43;5.13;;;;;;;-4.39;100.00;100514.25;5113006;28;20051;-66
2023/11/27 09:11:37;;;;;;;7.10;5.88;;;;;;;-4.24;100.00;100530.88;5111643;28;20129;-67
2023/11/27 09:14:03;;;;;;;6.90;5.20;;;;;;;-4.19;100.00;100544.50;5112497;28;20395;-66
2023/11/27 09:16:29;;;;;;;5.60;4.72;;;;;;;-4.37;100.00;100511.56;5113150;28;20023;-67
2023/11/27 09:19:03;;;;;;;9.67;5.47;;;;;;;-5.37;100.00;100351.84;5110984;28;20042;-70
2023/11/27 09:21:31;;;;;;;5.90;4.88;;;;;;;-4.13;100.00;100539.00;5112799;28;20040;-66
2023/11/27 09:23:57;;;;;;;8.40;5.37;;;;;;;-4.27;100.00;100515.44;5112469;28;20042;-69
2023/11/27 09:26:26;;;;;;;6.60;5.33;;;;;;;-4.16;100.00;100526.13;5109600;28;20045;-69
2023/11/27 09:29:00;;;;;;;6.07;4.72;;;;;;;-4.12;100.00;100530.28;5112598;28;20138;-68
2023/11/27 09:31:26;;;;;;;5.97;5.10;;;;;;;-4.33;100.00;100509.69;5110615;28;20042;-64
2023/11/27 09:33:58;;;;;;;5.97;5.10;;;;;;;-4.06;100.00;100537.75;5111522;28;20122;-68
2023/11/27 09:36:26;;;;;;;7.55;6.07;;;;;;;-4.13;100.00;100525.97;5110998;28;20437;-66
2023/11/27 09:38:52;;;;;;;6.40;4.88;;;;;;;-4.11;100.00;100515.50;5110925;28;20041;-65
2023/11/27 09:41:18;;;;;;;5.57;4.50;;;;;;;-3.92;100.00;100544.06;5112314;28;20390;-66
2023/11/27 09:43:43;;;;;;;7.23;5.70;;;;;;;-3.81;100.00;100557.38;5112429;28;20039;-69
2023/11/27 09:46:16;;;;;;;7.23;4.80;;;;;;;-3.98;100.00;100523.56;5113389;28;20088;-71
2023/11/27 09:48:44;;;;;;;6.50;5.60;;;;;;;-3.93;100.00;100518.97;5112356;28;20110;-69
2023/11/27 09:51:13;;;;;;;5.75;5.00;;;;;;;-3.78;100.00;100542.44;5112246;28;20581;-68
2023/11/27 09:53:49;;;;;;;5.60;4.88;;;;;;;-3.84;100.00;100523.69;5112062;28;20039;-66
2023/11/27 09:56:14;;;;;;;5.30;4.78;;;;;;;-3.97;100.00;100487.06;5112048;28;20043;-70
2023/11/27 09:58:42;;;;;;;6.00;5.20;;;;;;;-3.76;100.00;100495.53;5110612;28;20050;-71
2023/11/27 10:01:11;;;;;;;5.97;4.82;;;;;;;-3.63;100.00;100513.97;5112007;28;20069;-68
2023/11/27 10:03:43;;;;;;;5.32;4.82;;;;;;;-3.68;100.00;100511.59;5111838;28;20059;-71
2023/11/27 10:06:11;;;;;;;8.30;5.78;;;;;;;-3.71;100.00;100490.94;5112053;28;20043;-65
2023/11/27 10:08:37;;;;;;;6.68;4.43;;;;;;;-3.70;100.00;100484.81;5112250;28;20035;-66
2023/11/27 10:11:03;;;;;;;7.60;6.63;;;;;;;-3.63;100.00;100495.75;5111599;28;20085;-67
2023/11/27 10:13:34;;;;;;;6.30;5.45;;;;;;;-3.86;100.00;100463.94;5112768;28;20471;-67
2023/11/27 10:16:09;;;;;;;6.03;4.65;;;;;;;-3.89;100.00;100461.50;5112715;28;20513;-65
2023/11/27 10:18:35;;;;;;;8.30;5.20;;;;;;;-3.85;100.00;100451.75;5112037;28;20074;-67
2023/11/27 10:21:14;;;;;;;5.28;4.78;;;;;;;-3.74;100.00;100439.06;5108664;28;20128;-66
2023/11/27 10:23:43;;;;;;;;;;;;;;;-3.72;100.00;100447.63;5112252;28;20039;-66
2023/11/27 10:26:09;;;;;;;7.28;5.75;;;;;;;-3.85;100.00;100428.34;5111479;28;20446;-65
2023/11/27 10:28:50;;;;;;;7.70;5.17;;;;;;;-3.94;100.00;100410.63;5112010;28;20115;-66
2023/11/27 10:31:16;;;;;;;5.85;5.07;;;;;;;-3.78;100.00;100440.13;5111826;28;20039;-67
2023/11/27 10:33:42;;;;;;;6.78;5.68;;;;;;;-3.78;100.00;100425.34;5111771;28;20039;-67
2023/11/27 10:36:09;;;;;;;7.75;6.07;;;;;;;-3.71;100.00;100443.25;5111461;28;20039;-67
2023/11/27 10:38:36;;;;;;;7.28;4.78;;;;;;;-3.64;100.00;100423.78;5111902;28;20036;-67
2023/11/27 10:41:05;;;;;;;8.52;5.55;;;;;;;-3.62;100.00;100427.16;5113476;28;20038;-67
2023/11/27 10:43:32;;;;;;;;;;;;;;;-3.55;100.00;100421.53;5114166;28;20436;-65
2023/11/27 10:45:58;;;;;;;10.68;4.80;;;;;;;-3.57;100.00;100420.78;5115089;28;19923;-65
2023/11/27 10:48:25;;;;;;;7.25;5.55;;;;;;;-3.78;100.00;100390.69;5115612;28;20035;-66
2023/11/27 10:50:52;;;;;;;6.85;5.85;;;;;;;-3.61;100.00;100424.47;5115821;28;20043;-66
2023/11/27 10:53:21;;;;;;;7.25;5.68;;;;;;;-3.79;100.00;100384.63;5114379;28;20057;-66
2023/11/27 10:55:51;;;;;;;8.32;5.50;;;;;;;-3.51;100.00;100428.25;5114418;28;20397;-63
2023/11/27 10:58:18;;;;;;;9.30;5.63;;;;;;;-3.61;100.00;100406.25;5113706;28;20124;-66
2023/11/27 11:00:56;;;;;;;7.22;6.10;;;;;;;-3.49;100.00;100422.97;5114035;28;20036;-65
2023/11/27 11:03:26;;;;;;;8.05;5.80;;;;;;;-3.81;100.00;100372.63;5115033;28;20059;-64
2023/11/27 11:05:55;;;;;;;7.40;5.30;;;;;;;-3.57;100.00;100394.75;5113701;28;20196;-64
2023/11/27 11:08:26;;;;;;;12.75;6.68;;;;;;;-3.55;100.00;100398.09;5115173;28;20429;-65